»·PEaware :: N74KW 3L2-49X

N74KW :: 3L2-49X

FLIGHT INFORMATION

Flight Status: Arrived
Operator: Privately registered:
United States
More flights under this callsign
Pilot: Charles C. (26995)
Aircraft: MCDONNELL-DOUGLAS SKYTRAIN C-47
(DC3)
More flights by this aircraft type
Origin: 3L2 Sky Ranch
United States
Destination: 49X Chemehuevi Valley
United States
More flights between these airports :: More routes between these airports
Route: 3L2 49X
File this flight plan on PilotEdge
Remarks:
Altitude:
(Current/Filed)
5,500ft
Speed:
(Current/Filed)
150kts
Departed: 17-Aug-20 07:58 AM
Arrived: 17-Aug-20 08:40 AM
Distance/Time
Traveled:
96nm/0:42
Distance/Time
To Go:
Arrived

Flight Plot

Page will automatically refresh every two minutes.


Map Options




Map Legend


Flown Route
Filed Route
Departure Airport
Arrival Airport
Navaid (VOR, NDB)
Fix

Horizontal Profiles

Position Reports

Time Latitude Longitude Heading Altitude Ground
Speed
17-Aug-20 07:54 35.794989 -115.626447 1 2586ft 0kts
17-Aug-20 07:55 35.794989 -115.626447 1 2586ft 0kts
17-Aug-20 07:56 35.795034 -115.627546 222 2585ft 0kts
17-Aug-20 07:57 35.797306 -115.625040 53 2591ft 69kts
17-Aug-20 07:58 35.806863 -115.595647 138 3130ft 111kts
17-Aug-20 07:59 35.777246 -115.588091 142 3678ft 121kts
17-Aug-20 08:00 35.744148 -115.580333 184 4201ft 125kts
17-Aug-20 08:01 35.710523 -115.579090 151 4774ft 122kts
17-Aug-20 08:02 35.680476 -115.560134 173 5333ft 123kts
17-Aug-20 08:03 35.643076 -115.558294 175 5458ft 148kts
17-Aug-20 08:04 35.601870 -115.550684 140 5479ft 152kts
17-Aug-20 08:05 35.560918 -115.539622 150 5478ft 155kts
17-Aug-20 08:06 35.531041 -115.502206 128 5467ft 155kts
17-Aug-20 08:07 35.504083 -115.460687 128 5468ft 155kts
17-Aug-20 08:08 35.477202 -115.419327 127 5467ft 155kts
17-Aug-20 08:09 35.458806 -115.372002 110 5467ft 155kts
17-Aug-20 08:10 35.435545 -115.327851 133 5470ft 157kts
17-Aug-20 08:11 35.404493 -115.293231 139 6014ft 146kts
17-Aug-20 08:12 35.373220 -115.261692 139 6500ft 145kts
17-Aug-20 08:13 35.341785 -115.230597 140 6953ft 145kts
17-Aug-20 08:14 35.310191 -115.199471 140 7383ft 146kts
17-Aug-20 08:15 35.278170 -115.167933 141 7771ft 149kts
17-Aug-20 08:16 35.244515 -115.134832 140 7731ft 174kts
17-Aug-20 08:17 35.204367 -115.095374 140 7403ft 179kts
17-Aug-20 08:18 35.166342 -115.057934 140 7413ft 173kts
17-Aug-20 08:19 35.129075 -115.021274 140 7414ft 171kts
17-Aug-20 08:20 35.092534 -114.985345 140 7414ft 171kts
17-Aug-20 08:21 35.056026 -114.949493 140 7411ft 168kts
17-Aug-20 08:22 35.020337 -114.914467 140 7412ft 165kts
17-Aug-20 08:23 34.981526 -114.876340 139 6660ft 191kts
17-Aug-20 08:24 34.938648 -114.834227 139 5688ft 202kts
17-Aug-20 08:25 34.908421 -114.782000 96 4852ft 198kts
17-Aug-20 08:26 34.901340 -114.715850 96 4083ft 197kts
17-Aug-20 08:27 34.873989 -114.661609 125 3323ft 197kts
17-Aug-20 08:28 34.846065 -114.613250 123 3371ft 169kts
17-Aug-20 08:29 34.818838 -114.566017 122 3012ft 166kts
17-Aug-20 08:30 34.793638 -114.522048 122 3012ft 152kts
17-Aug-20 08:32 34.769890 -114.480693 123 3010ft 142kts
17-Aug-20 08:33 34.732780 -114.456938 152 2513ft 159kts
17-Aug-20 08:34 34.691606 -114.456286 201 1983ft 167kts
17-Aug-20 08:35 34.649267 -114.467499 153 1603ft 152kts
17-Aug-20 08:36 34.617956 -114.451296 144 943ft 111kts
17-Aug-20 08:37 34.592363 -114.445256 151 906ft 87kts
17-Aug-20 08:38 34.569983 -114.436684 164 1190ft 92kts
17-Aug-20 08:39 34.543503 -114.431972 174 815ft 82kts
17-Aug-20 08:40 34.528888 -114.431671 86 628ft 8kts
17-Aug-20 08:41 34.529252 -114.430266 172 625ft 0kts
17-Aug-20 08:42 34.529252 -114.430266 172 625ft 0kts
17-Aug-20 08:43 34.529252 -114.430266 172 625ft 0kts
17-Aug-20 08:44 34.529252 -114.430266 172 625ft 0kts
17-Aug-20 08:45 34.529252 -114.430266 172 625ft 0kts
17-Aug-20 08:46 34.529252 -114.430266 172 625ft 0kts
17-Aug-20 08:47 34.529252 -114.430266 172 625ft 0kts
17-Aug-20 08:47 34.529252 -114.430266 172 625ft 0kts
17-Aug-20 08:48 34.529252 -114.430266 172 625ft 0kts

Navigation Log

Ident Type
Flight plan parsing failed, navigation log unavailable